Time;durP1;ratioP1;P1;durP2;ratioP2;P2;SDS_P1;SDS_P2;PMS_P1;PMS_P2;Temp;Humidity;BMP_temperature;BMP_pressure;BME280_temperature;BME280_humidity;BME280_pressure;Samples;Min_cycle;Max_cycle;Signal;HPM_P1;HPM_P2
2022/09/04 00:02:13;;;;;;;9.48;3.95;;;13.90;84.50;;;;;;5099245;28;20386;-69
2022/09/04 00:04:51;;;;;;;9.02;4.57;;;13.90;83.30;;;;;;5096202;28;20499;-69
2022/09/04 00:07:39;;;;;;;8.43;4.10;;;13.80;84.40;;;;;;5095443;28;20030;-69
2022/09/04 00:10:34;;;;;;;6.30;4.50;;;13.70;83.60;;;;;;5112538;27;20103;-69
2022/09/04 00:13:19;;;;;;;8.32;5.13;;;13.60;83.50;;;;;;5110901;28;20343;-69
2022/09/04 00:15:57;;;;;;;7.15;4.03;;;13.50;82.50;;;;;;5114875;28;20054;-68
2022/09/04 00:18:38;;;;;;;9.20;4.57;;;13.50;82.70;;;;;;5102571;28;20023;-69
2022/09/04 00:21:12;;;;;;;6.90;4.60;;;13.50;81.50;;;;;;5115560;28;20051;-69
2022/09/04 00:23:52;;;;;;;7.97;3.80;;;13.50;81.10;;;;;;5096413;28;20324;-68
2022/09/04 00:26:29;;;;;;;5.95;3.80;;;13.40;81.80;;;;;;5115535;28;20054;-68
2022/09/04 00:29:05;;;;;;;6.72;4.28;;;13.40;81.30;;;;;;5115399;28;20480;-68
2022/09/04 00:31:35;;;;;;;9.77;4.45;;;13.30;81.30;;;;;;5115072;28;20028;-68
2022/09/04 00:34:07;;;;;;;10.90;4.28;;;13.30;81.00;;;;;;5115114;28;20026;-69
2022/09/04 00:36:37;;;;;;;8.50;4.78;;;13.20;81.30;;;;;;5114541;28;20346;-69
2022/09/04 00:39:17;;;;;;;9.57;4.70;;;13.20;80.90;;;;;;5113781;28;20070;-69
2022/09/04 00:42:04;;;;;;;7.88;4.47;;;13.20;80.00;;;;;;5115970;28;20289;-68
2022/09/04 00:45:07;;;;;;;7.82;4.78;;;13.30;79.40;;;;;;5114532;28;20020;-68
2022/09/04 00:48:07;;;;;;;7.38;4.20;;;13.30;80.20;;;;;;5116319;28;20020;-68
2022/09/04 00:51:04;;;;;;;9.07;5.30;;;13.30;79.90;;;;;;5113071;28;20438;-68
2022/09/04 00:53:51;;;;;;;9.70;4.43;;;13.20;81.00;;;;;;5110231;28;20102;-68
2022/09/04 00:56:58;;;;;;;8.90;4.72;;;13.20;80.00;;;;;;5114803;28;20024;-68
2022/09/04 00:59:57;;;;;;;6.38;4.70;;;13.30;79.50;;;;;;5101558;27;20039;-68
2022/09/04 01:02:52;;;;;;;9.05;5.15;;;13.20;80.50;;;;;;5118956;27;20055;-67
2022/09/04 01:05:55;;;;;;;7.90;4.40;;;13.20;79.60;;;;;;5109482;27;20040;-69
2022/09/04 01:08:24;;;;;;;7.75;5.20;;;13.10;80.10;;;;;;5099766;28;20055;-69
2022/09/04 01:11:06;;;;;;;9.65;5.07;;;13.10;79.50;;;;;;5112280;28;20023;-68
2022/09/04 01:13:44;;;;;;;8.77;4.35;;;13.00;80.80;;;;;;5099774;28;20301;-69
2022/09/04 01:16:24;;;;;;;7.65;4.55;;;12.90;79.30;;;;;;5113344;28;20027;-68
2022/09/04 01:19:32;;;;;;;6.15;4.35;;;12.90;79.70;;;;;;5119568;28;20090;-68
2022/09/04 01:22:02;;;;;;;7.07;4.53;;;13.00;78.30;;;;;;5115869;28;20031;-68
2022/09/04 01:24:34;;;;;;;8.40;4.90;;;13.10;79.30;;;;;;5117584;28;20019;-69
2022/09/04 01:27:24;;;;;;;10.02;4.90;;;13.00;79.30;;;;;;5118670;27;20023;-69
2022/09/04 01:30:12;;;;;;;8.30;5.20;;;13.00;79.80;;;;;;5119538;28;20034;-69
2022/09/04 01:33:08;;;;;;;7.82;4.32;;;12.90;79.80;;;;;;5117084;28;20059;-68
2022/09/04 01:36:00;;;;;;;8.77;4.60;;;12.80;79.70;;;;;;5117722;27;20331;-69
2022/09/04 01:38:42;;;;;;;8.30;4.68;;;12.80;78.60;;;;;;5119101;28;20067;-68
2022/09/04 01:41:28;;;;;;;9.68;4.60;;;12.90;78.50;;;;;;5118672;28;20067;-68
2022/09/04 01:43:57;;;;;;;9.90;4.97;;;12.90;78.20;;;;;;5119311;28;20028;-68
2022/09/04 01:46:50;;;;;;;12.30;4.40;;;12.90;78.10;;;;;;5118587;28;20028;-69
2022/09/04 01:49:25;;;;;;;8.13;4.18;;;12.80;79.10;;;;;;5119135;28;20023;-69
2022/09/04 01:52:22;;;;;;;8.93;4.63;;;12.80;78.60;;;;;;5117426;28;20459;-70
2022/09/04 01:54:52;;;;;;;8.05;5.10;;;12.90;78.40;;;;;;5117434;28;20072;-69
2022/09/04 01:57:43;;;;;;;9.82;4.63;;;12.80;78.70;;;;;;5114150;28;20016;-68
2022/09/04 02:00:18;;;;;;;10.75;4.40;;;12.90;78.10;;;;;;5119308;28;20038;-67
2022/09/04 02:02:47;;;;;;;5.63;4.03;;;12.90;78.90;;;;;;5113615;28;20059;-67
2022/09/04 02:05:21;;;;;;;7.28;4.32;;;12.90;79.30;;;;;;5114023;28;20048;-68
2022/09/04 02:08:05;;;;;;;;;;;12.90;78.50;;;;;;5115753;28;20110;-68
2022/09/04 02:11:00;;;;;;;7.05;4.65;;;12.90;78.80;;;;;;5114323;27;19953;-68
2022/09/04 02:14:07;;;;;;;9.10;5.30;;;12.90;78.20;;;;;;5117130;28;20462;-68
2022/09/04 02:16:45;;;;;;;9.73;4.45;;;13.00;78.80;;;;;;5113393;28;20024;-68
2022/09/04 02:19:32;;;;;;;7.75;4.10;;;13.00;79.30;;;;;;5118702;28;20028;-68
2022/09/04 02:22:06;;;;;;;8.15;4.47;;;12.90;79.30;;;;;;5112844;28;20039;-68
2022/09/04 02:24:51;;;;;;;7.25;4.05;;;12.80;80.50;;;;;;5113636;28;20106;-68
2022/09/04 02:27:20;;;;;;;9.00;4.47;;;12.70;80.10;;;;;;5117346;28;20038;-68
2022/09/04 02:30:02;;;;;;;8.95;4.50;;;12.80;78.40;;;;;;5117805;28;20028;-68
2022/09/04 02:32:41;;;;;;;7.20;4.40;;;12.90;79.10;;;;;;5111733;28;20034;-68
2022/09/04 02:35:58;;;;;;;10.35;4.57;;;12.80;79.30;;;;;;5117160;28;20098;-69
2022/09/04 02:38:41;;;;;;;6.38;4.82;;;12.80;79.30;;;;;;5074671;28;20044;-68
2022/09/04 02:41:32;;;;;;;9.52;4.88;;;12.80;79.00;;;;;;5103699;28;20028;-69
2022/09/04 02:44:28;;;;;;;6.18;4.20;;;12.80;79.00;;;;;;5118565;27;20039;-69
2022/09/04 02:47:23;;;;;;;9.85;5.82;;;12.80;78.50;;;;;;5116830;28;20059;-68
2022/09/04 02:50:19;;;;;;;7.95;4.95;;;12.80;78.40;;;;;;5115639;27;20485;-69
2022/09/04 02:53:14;;;;;;;10.25;4.80;;;12.80;78.70;;;;;;5113049;28;20023;-68
2022/09/04 02:56:01;;;;;;;9.48;5.25;;;12.80;78.20;;;;;;5113688;28;20027;-68
2022/09/04 02:59:06;;;;;;;7.35;5.18;;;12.80;78.60;;;;;;5097028;28;20099;-69
2022/09/04 03:01:59;;;;;;;9.13;4.90;;;12.70;78.20;;;;;;5106225;28;20016;-68
2022/09/04 03:04:59;;;;;;;7.57;5.15;;;12.70;78.80;;;;;;5104622;28;20042;-68
2022/09/04 03:08:03;;;;;;;8.02;5.32;;;12.50;79.20;;;;;;5098254;28;20115;-68
2022/09/04 03:10:50;;;;;;;10.02;5.80;;;12.50;77.60;;;;;;5080606;28;20036;-68
2022/09/04 03:13:46;;;;;;;9.48;6.07;;;12.60;77.90;;;;;;5112929;28;20035;-69
2022/09/04 03:16:22;;;;;;;9.73;5.43;;;12.50;77.90;;;;;;5112660;27;20023;-68
2022/09/04 03:19:13;;;;;;;10.27;5.57;;;12.60;77.20;;;;;;5114430;28;20023;-68
2022/09/04 03:21:45;;;;;;;11.55;6.03;;;12.50;77.80;;;;;;5116377;27;20055;-68
2022/09/04 03:24:30;;;;;;;9.05;5.88;;;12.60;77.00;;;;;;5085968;28;20017;-69
2022/09/04 03:27:01;;;;;;;10.43;5.95;;;12.60;77.30;;;;;;5099507;28;20020;-68
2022/09/04 03:29:36;;;;;;;7.07;5.22;;;12.60;76.70;;;;;;5116441;28;20324;-69
2022/09/04 03:32:19;;;;;;;7.28;5.43;;;12.70;77.00;;;;;;5115078;28;20034;-68
2022/09/04 03:35:17;;;;;;;10.90;5.95;;;12.60;77.50;;;;;;5112349;28;20412;-69
2022/09/04 03:38:19;;;;;;;11.30;7.05;;;12.60;76.90;;;;;;5111233;28;20035;-68
2022/09/04 03:41:07;;;;;;;9.93;5.75;;;12.60;77.30;;;;;;5110218;28;20023;-68
2022/09/04 03:43:48;;;;;;;8.57;5.80;;;12.60;76.80;;;;;;5109392;28;20026;-68
2022/09/04 03:46:51;;;;;;;9.02;6.03;;;12.60;77.00;;;;;;5100303;28;20020;-68
2022/09/04 03:49:51;;;;;;;8.68;6.32;;;12.60;77.20;;;;;;5072800;28;20059;-68
2022/09/04 03:52:34;;;;;;;11.98;5.97;;;12.60;77.20;;;;;;5107577;28;20096;-67
2022/09/04 03:55:14;;;;;;;8.88;5.70;;;12.50;78.00;;;;;;5107727;28;20031;-68
2022/09/04 03:58:23;;;;;;;7.32;5.40;;;12.40;77.10;;;;;;5090799;28;20039;-68
2022/09/04 04:01:21;;;;;;;7.07;5.30;;;12.40;77.00;;;;;;5112400;28;20052;-69
2022/09/04 04:03:55;;;;;;;11.75;6.30;;;12.50;76.70;;;;;;5107729;28;20388;-69
2022/09/04 04:07:01;;;;;;;12.02;5.97;;;12.60;76.60;;;;;;5097226;28;20341;-69
2022/09/04 04:09:53;;;;;;;8.48;6.22;;;12.50;77.00;;;;;;5111206;28;20032;-69
2022/09/04 04:12:49;;;;;;;11.45;6.18;;;12.50;77.30;;;;;;5114028;28;20055;-69
2022/09/04 04:15:39;;;;;;;9.00;6.50;;;12.40;76.70;;;;;;5108787;28;20035;-68
2022/09/04 04:18:19;;;;;;;11.50;6.05;;;12.40;76.50;;;;;;5099220;28;20308;-69
2022/09/04 04:20:59;;;;;;;12.68;6.47;;;12.60;75.80;;;;;;5107605;28;20032;-69
2022/09/04 04:24:02;;;;;;;8.07;5.55;;;12.60;76.10;;;;;;5102248;28;20027;-68
2022/09/04 04:26:50;;;;;;;8.38;5.68;;;12.70;76.00;;;;;;5100059;28;20031;-69
2022/09/04 04:29:39;;;;;;;10.98;5.75;;;12.70;76.10;;;;;;5114872;28;20031;-68
2022/09/04 04:32:14;;;;;;;9.48;6.13;;;12.70;76.10;;;;;;5101765;28;20034;-68
2022/09/04 04:35:14;;;;;;;10.50;5.68;;;12.70;76.10;;;;;;5113128;28;20038;-68
2022/09/04 04:38:02;;;;;;;9.55;6.15;;;12.60;76.20;;;;;;5096604;28;20458;-68
2022/09/04 04:40:48;;;;;;;7.30;5.68;;;12.50;76.70;;;;;;5113421;28;20097;-67
2022/09/04 04:43:32;;;;;;;9.23;6.28;;;12.40;76.70;;;;;;5108130;28;20444;-67
2022/09/04 04:46:16;;;;;;;10.75;6.82;;;12.40;76.30;;;;;;5108516;28;20417;-68
2022/09/04 04:49:03;;;;;;;8.90;5.38;;;12.30;76.40;;;;;;5112838;28;20035;-67
2022/09/04 04:51:41;;;;;;;9.48;6.00;;;12.40;75.70;;;;;;5103612;28;20035;-68
2022/09/04 04:54:38;;;;;;;10.63;6.25;;;12.40;76.10;;;;;;5105218;28;20024;-68
2022/09/04 04:57:42;;;;;;;13.25;6.85;;;12.50;75.60;;;;;;5111814;28;20020;-69
2022/09/04 05:00:28;;;;;;;10.07;6.45;;;12.60;75.60;;;;;;5069560;28;20353;-68
2022/09/04 05:03:05;;;;;;;10.27;6.47;;;12.70;75.60;;;;;;5097516;28;20392;-69
2022/09/04 05:06:08;;;;;;;9.88;7.20;;;12.70;75.90;;;;;;5111899;28;20470;-69
2022/09/04 05:08:46;;;;;;;9.35;6.00;;;12.80;75.60;;;;;;5110085;28;20060;-68
2022/09/04 05:11:29;;;;;;;13.05;6.85;;;12.80;75.90;;;;;;5100390;28;20162;-69
2022/09/04 05:14:21;;;;;;;8.73;5.57;;;12.80;75.70;;;;;;5100090;28;20439;-69
2022/09/04 05:17:05;;;;;;;10.77;6.00;;;12.90;75.70;;;;;;5112940;28;20027;-69
2022/09/04 05:19:46;;;;;;;9.73;5.88;;;12.80;76.20;;;;;;5104138;28;20020;-69
2022/09/04 05:22:38;;;;;;;13.35;6.55;;;12.80;76.00;;;;;;5101943;28;20036;-69
2022/09/04 05:25:25;;;;;;;11.75;6.35;;;12.90;75.80;;;;;;5093979;28;20019;-69
2022/09/04 05:28:15;;;;;;;10.45;6.30;;;12.90;76.00;;;;;;5096748;28;20328;-69
2022/09/04 05:30:55;;;;;;;12.35;7.10;;;12.90;75.80;;;;;;5110640;28;20158;-69
2022/09/04 05:33:30;;;;;;;8.00;5.78;;;13.00;76.10;;;;;;5093017;28;20024;-69
2022/09/04 05:36:23;;;;;;;10.00;6.75;;;12.90;76.00;;;;;;5092176;28;20490;-69
2022/09/04 05:39:01;;;;;;;9.05;6.25;;;13.00;76.10;;;;;;5099988;28;20036;-69
2022/09/04 05:41:41;;;;;;;8.57;6.45;;;13.00;75.70;;;;;;5106715;28;20028;-68
2022/09/04 05:44:18;;;;;;;10.05;6.40;;;13.10;75.60;;;;;;5111904;28;20055;-69
2022/09/04 05:46:52;;;;;;;9.02;6.35;;;13.10;76.00;;;;;;5102098;28;20030;-69
2022/09/04 05:49:36;;;;;;;10.38;6.13;;;13.10;75.90;;;;;;5104460;28;20461;-69
2022/09/04 05:52:20;;;;;;;11.05;5.95;;;13.20;75.80;;;;;;5100406;28;20036;-69
2022/09/04 05:54:59;;;;;;;10.25;6.93;;;13.40;75.60;;;;;;5103001;28;20036;-69
2022/09/04 05:57:57;;;;;;;7.95;5.13;;;13.50;75.80;;;;;;5104776;28;20093;-68
2022/09/04 06:00:40;;;;;;;8.55;6.22;;;13.70;75.60;;;;;;5097821;28;20023;-68
2022/09/04 06:03:56;;;;;;;9.05;5.43;;;13.80;75.90;;;;;;5103750;28;20032;-68
2022/09/04 06:06:44;;;;;;;7.10;5.53;;;13.90;76.40;;;;;;5042229;28;20057;-68
2022/09/04 06:09:44;;;;;;;7.80;5.95;;;14.00;76.20;;;;;;5108838;28;20051;-68
2022/09/04 06:12:19;;;;;;;7.82;5.45;;;14.30;75.60;;;;;;5116009;28;20038;-68
2022/09/04 06:15:17;;;;;;;7.05;5.03;;;15.00;75.50;;;;;;5109692;28;20035;-69
2022/09/04 06:18:18;;;;;;;6.65;4.60;;;15.50;76.80;;;;;;5119423;27;20035;-67
2022/09/04 06:21:04;;;;;;;8.23;4.13;;;16.10;78.80;;;;;;5114010;28;20023;-68
2022/09/04 06:23:44;;;;;;;5.20;3.65;;;16.40;83.20;;;;;;5108149;27;20039;-68
2022/09/04 06:26:44;;;;;;;5.95;3.10;;;16.70;89.30;;;;;;5117428;27;20424;-68
2022/09/04 06:29:48;;;;;;;5.57;3.05;;;17.20;94.60;;;;;;5139071;27;20031;-69
2022/09/04 06:32:41;;;;;;;5.45;3.08;;;17.10;97.80;;;;;;5114315;28;20436;-69
2022/09/04 06:35:42;;;;;;;5.15;3.58;;;16.80;97.10;;;;;;5115704;27;20035;-69
2022/09/04 06:38:20;;;;;;;7.82;3.33;;;16.60;96.00;;;;;;5117899;28;20036;-69
2022/09/04 06:41:12;;;;;;;6.63;3.38;;;16.50;96.10;;;;;;5117534;27;20031;-69
2022/09/04 06:43:55;;;;;;;7.35;3.47;;;16.40;96.40;;;;;;5074922;27;20046;-68
2022/09/04 06:46:49;;;;;;;6.13;3.53;;;16.30;95.40;;;;;;5104668;28;20038;-68
2022/09/04 06:49:58;;;;;;;4.95;3.10;;;16.40;95.20;;;;;;5116155;28;21217;-68
2022/09/04 06:52:37;;;;;;;5.68;3.08;;;16.50;95.00;;;;;;5117575;28;20110;-68
2022/09/04 06:55:26;;;;;;;7.57;3.25;;;16.70;95.30;;;;;;5113919;28;20030;-70
2022/09/04 06:58:16;;;;;;;4.57;2.80;;;16.90;95.90;;;;;;5116547;27;20546;-70
2022/09/04 07:01:25;;;;;;;5.72;3.45;;;17.00;96.00;;;;;;5114665;28;20023;-69
2022/09/04 07:04:15;;;;;;;6.88;3.33;;;17.20;98.00;;;;;;5014059;28;20390;-69
2022/09/04 07:06:57;;;;;;;5.85;2.85;;;17.50;98.00;;;;;;5083206;28;20437;-69
2022/09/04 07:09:29;;;;;;;4.72;2.85;;;17.70;98.00;;;;;;5082760;28;20032;-68
2022/09/04 07:12:37;;;;;;;5.85;3.17;;;17.80;98.00;;;;;;5085635;28;20062;-69
2022/09/04 07:15:21;;;;;;;5.82;2.85;;;18.00;98.00;;;;;;5094274;28;20028;-68
2022/09/04 07:18:22;;;;;;;4.93;3.13;;;18.20;98.00;;;;;;5092644;28;20020;-69
2022/09/04 07:21:25;;;;;;;7.93;2.95;;;18.30;98.00;;;;;;5093489;28;20021;-68
2022/09/04 07:24:10;;;;;;;5.95;3.08;;;18.30;98.00;;;;;;5090998;28;20116;-68
2022/09/04 07:26:49;;;;;;;4.38;2.58;;;18.50;98.00;;;;;;5094817;28;20035;-69
2022/09/04 07:29:28;;;;;;;6.85;3.00;;;18.60;98.00;;;;;;5085415;28;20026;-68
2022/09/04 07:32:14;;;;;;;6.53;2.80;;;18.70;98.00;;;;;;5079270;28;20031;-69
2022/09/04 07:34:56;;;;;;;5.38;3.28;;;18.80;97.60;;;;;;5083198;28;20024;-68
2022/09/04 07:37:57;;;;;;;5.68;2.58;;;18.80;97.50;;;;;;5085157;28;20109;-68
2022/09/04 07:40:35;;;;;;;4.47;2.65;;;18.90;96.90;;;;;;5085464;28;20370;-68
2022/09/04 07:43:07;;;;;;;5.57;2.78;;;19.00;96.50;;;;;;5088555;28;20020;-69
2022/09/04 07:45:37;;;;;;;4.07;2.45;;;19.00;96.60;;;;;;5094039;28;20054;-68
2022/09/04 07:48:31;;;;;;;4.25;2.00;;;19.10;96.40;;;;;;5090795;28;20066;-68
2022/09/04 07:51:29;;;;;;;4.25;2.22;;;19.20;95.80;;;;;;5080126;28;20044;-68
2022/09/04 07:54:32;;;;;;;5.18;2.17;;;19.40;95.20;;;;;;5060949;28;20093;-69
2022/09/04 07:56:57;;;;;;;4.78;2.53;;;19.50;94.60;;;;;;5085236;28;20027;-68
2022/09/04 07:59:48;;;;;;;4.10;2.00;;;19.70;94.40;;;;;;5092016;28;20020;-68
2022/09/04 08:02:20;;;;;;;3.33;1.90;;;19.80;93.80;;;;;;5087763;28;20034;-68
2022/09/04 08:05:05;;;;;;;3.88;1.80;;;20.40;92.50;;;;;;5092787;28;20100;-69
2022/09/04 08:07:37;;;;;;;3.05;1.75;;;21.40;90.40;;;;;;5100097;28;20478;-69
2022/09/04 08:10:46;;;;;;;5.60;1.60;;;22.70;86.80;;;;;;5114658;28;20099;-68
2022/09/04 08:13:47;;;;;;;6.25;1.45;;;24.10;81.50;;;;;;5110079;28;20106;-69
2022/09/04 08:16:13;;;;;;;4.00;1.50;;;25.60;77.80;;;;;;5092041;28;20048;-69
2022/09/04 08:18:54;;;;;;;3.42;1.52;;;26.50;74.40;;;;;;5113680;28;20023;-68
2022/09/04 08:21:23;;;;;;;3.05;1.42;;;26.20;74.30;;;;;;5110265;28;20107;-69
2022/09/04 08:24:02;;;;;;;3.40;1.33;;;25.60;76.20;;;;;;5114556;27;20100;-69
2022/09/04 08:26:49;;;;;;;3.33;1.50;;;25.80;76.00;;;;;;5114254;28;20027;-69
2022/09/04 08:29:52;;;;;;;4.60;1.20;;;26.70;73.30;;;;;;5112206;28;20024;-69
2022/09/04 08:32:55;;;;;;;3.25;1.33;;;25.70;75.40;;;;;;5109604;28;20077;-69
2022/09/04 08:35:33;;;;;;;4.43;1.40;;;25.60;75.60;;;;;;5103265;28;20039;-69
2022/09/04 08:38:32;;;;;;;2.60;1.10;;;25.40;75.60;;;;;;5096038;28;20023;-68
2022/09/04 08:41:09;;;;;;;3.60;1.02;;;26.00;74.10;;;;;;5107233;28;20031;-69
2022/09/04 08:44:02;;;;;;;2.75;1.17;;;26.50;71.40;;;;;;5112115;28;20023;-68
2022/09/04 08:46:51;;;;;;;2.95;1.20;;;26.40;70.70;;;;;;5108763;28;20021;-68
2022/09/04 08:49:27;;;;;;;5.28;2.75;;;26.50;70.70;;;;;;5108062;28;20641;-69
2022/09/04 08:52:25;;;;;;;10.00;8.05;;;27.10;69.80;;;;;;5114001;28;20031;-68
2022/09/04 08:54:55;;;;;;;3.55;1.88;;;27.40;69.90;;;;;;5110311;28;20031;-67
2022/09/04 08:58:01;;;;;;;2.70;1.13;;;27.80;67.50;;;;;;5128571;28;20027;-68
2022/09/04 09:01:02;;;;;;;4.03;1.38;;;28.40;66.90;;;;;;5117829;28;20027;-68
2022/09/04 09:03:58;;;;;;;1.75;0.85;;;28.80;64.70;;;;;;5086778;28;20337;-70
2022/09/04 09:06:36;;;;;;;3.05;1.00;;;28.90;63.90;;;;;;5093928;28;21464;-69
2022/09/04 09:09:42;;;;;;;2.42;0.93;;;28.80;65.00;;;;;;5090543;28;20020;-68
2022/09/04 09:12:26;;;;;;;2.85;1.05;;;28.80;64.30;;;;;;5095840;28;20034;-70
2022/09/04 09:15:10;;;;;;;2.45;1.00;;;28.80;66.00;;;;;;5094262;28;20035;-68
2022/09/04 09:18:00;;;;;;;2.47;1.10;;;28.60;65.50;;;;;;5102167;28;20023;-67
2022/09/04 09:20:28;;;;;;;4.43;0.90;;;29.00;64.20;;;;;;5097913;28;20039;-67
2022/09/04 09:23:18;;;;;;;3.03;1.00;;;29.60;63.40;;;;;;5098013;28;20074;-69
2022/09/04 09:26:08;;;;;;;4.20;1.10;;;29.60;63.50;;;;;;5104971;28;20032;-67
2022/09/04 09:29:11;;;;;;;10.82;9.65;;;29.20;63.60;;;;;;5098599;28;20055;-66
2022/09/04 09:32:10;;;;;;;2.60;1.40;;;29.20;63.70;;;;;;5091180;28;20027;-69
2022/09/04 09:35:10;;;;;;;3.00;1.30;;;29.90;64.70;;;;;;5098705;28;20056;-67
2022/09/04 09:38:06;;;;;;;2.97;0.90;;;30.10;61.90;;;;;;5092695;28;20051;-69
2022/09/04 09:40:52;;;;;;;3.85;1.13;;;29.50;61.80;;;;;;5097132;28;20028;-67
2022/09/04 09:43:45;;;;;;;3.45;0.90;;;29.30;64.50;;;;;;5093779;28;20047;-66
2022/09/04 09:46:44;;;;;;;1.65;0.80;;;29.00;63.50;;;;;;5099132;28;20048;-66
2022/09/04 09:49:28;;;;;;;3.40;1.08;;;29.30;64.70;;;;;;5113667;28;20024;-68
2022/09/04 09:52:18;;;;;;;3.17;1.00;;;30.10;63.00;;;;;;5109439;28;20020;-66
2022/09/04 09:55:17;;;;;;;2.63;1.10;;;31.10;60.10;;;;;;5097942;28;20066;-67
2022/09/04 09:58:01;;;;;;;1.75;0.77;;;30.20;61.70;;;;;;5089130;28;20020;-67
2022/09/04 10:00:45;;;;;;;;;;;29.30;63.70;;;;;;5087261;28;20099;-68
2022/09/04 10:03:53;;;;;;;2.17;0.95;;;29.90;61.90;;;;;;5093254;28;19916;-68
2022/09/04 10:06:58;;;;;;;2.72;1.08;;;30.20;61.60;;;;;;5103848;28;20027;-69
2022/09/04 10:10:05;;;;;;;2.20;0.90;;;30.30;61.50;;;;;;5101530;28;20017;-68
2022/09/04 10:12:39;;;;;;;4.70;1.20;;;30.10;61.50;;;;;;5100003;28;20032;-69
2022/09/04 10:15:20;;;;;;;1.83;0.85;;;30.10;62.40;;;;;;5104945;28;20032;-68
2022/09/04 10:18:07;;;;;;;2.53;1.30;;;30.40;61.30;;;;;;5107634;28;20036;-69
2022/09/04 10:20:54;;;;;;;2.92;1.10;;;29.60;63.30;;;;;;5108616;28;20028;-67
2022/09/04 10:23:54;;;;;;;3.60;1.00;;;29.10;62.20;;;;;;5093929;28;20028;-67
2022/09/04 10:27:01;;;;;;;3.13;1.05;;;28.40;63.60;;;;;;5113968;28;20042;-67
2022/09/04 10:29:44;;;;;;;2.13;1.20;;;27.80;64.30;;;;;;5108458;27;20035;-66
2022/09/04 10:32:30;;;;;;;4.55;1.23;;;28.20;63.40;;;;;;5112047;28;20030;-66
2022/09/04 10:35:17;;;;;;;2.50;0.88;;;28.20;63.20;;;;;;5109756;28;20019;-68
2022/09/04 10:38:15;;;;;;;4.20;1.38;;;28.70;61.00;;;;;;5115259;28;20043;-66
2022/09/04 10:41:04;;;;;;;3.15;0.90;;;29.10;62.60;;;;;;5112433;28;20027;-67
2022/09/04 10:43:38;;;;;;;2.05;1.02;;;28.90;60.50;;;;;;5092845;28;20115;-68
2022/09/04 10:46:22;;;;;;;3.42;1.10;;;29.30;62.70;;;;;;5111020;27;20020;-67
2022/09/04 10:49:19;;;;;;;3.65;1.02;;;29.70;60.80;;;;;;5104335;28;20099;-66
2022/09/04 10:51:51;;;;;;;2.42;0.90;;;29.20;62.70;;;;;;5060825;28;20052;-67
2022/09/04 10:54:44;;;;;;;2.38;1.02;;;29.30;62.40;;;;;;5097725;28;20032;-67
2022/09/04 10:57:54;;;;;;;3.00;1.00;;;29.90;59.60;;;;;;5105572;28;20371;-67
2022/09/04 11:00:25;;;;;;;4.60;1.27;;;30.40;58.50;;;;;;5064176;28;20313;-66
2022/09/04 11:03:35;;;;;;;2.88;1.02;;;30.50;58.30;;;;;;5113509;27;20482;-66
2022/09/04 11:06:24;;;;;;;2.05;1.00;;;30.10;56.70;;;;;;5069642;28;20161;-66
2022/09/04 11:09:32;;;;;;;1.90;0.95;;;28.70;58.50;;;;;;5110809;28;20020;-67
2022/09/04 11:12:19;;;;;;;2.58;1.00;;;28.30;59.60;;;;;;5090299;27;20043;-69
2022/09/04 11:14:54;;;;;;;2.63;1.10;;;28.60;59.10;;;;;;5129145;27;20015;-68
2022/09/04 11:17:57;;;;;;;3.22;1.15;;;28.60;59.80;;;;;;5105110;28;20051;-68
2022/09/04 11:20:59;;;;;;;4.32;1.65;;;28.70;60.20;;;;;;5120657;27;20047;-68
2022/09/04 11:23:50;;;;;;;2.78;1.20;;;28.10;59.50;;;;;;5117918;27;20032;-67
2022/09/04 11:26:35;;;;;;;3.33;1.40;;;27.70;59.90;;;;;;5116264;28;20031;-68
2022/09/04 11:29:03;;;;;;;3.22;1.30;;;27.30;61.40;;;;;;5122595;27;20020;-68
2022/09/04 11:32:01;;;;;;;3.30;1.02;;;27.40;62.40;;;;;;5124623;27;20100;-67
2022/09/04 11:35:00;;;;;;;2.58;1.10;;;27.40;60.30;;;;;;5116468;27;20031;-68
2022/09/04 11:37:35;;;;;;;3.30;1.10;;;27.60;60.60;;;;;;5120618;27;20020;-68
2022/09/04 11:40:09;;;;;;;4.93;1.27;;;27.50;61.90;;;;;;5114579;27;20440;-69
2022/09/04 11:43:09;;;;;;;3.35;1.20;;;27.70;63.00;;;;;;5115486;28;20019;-68
2022/09/04 11:46:13;;;;;;;2.95;1.13;;;28.40;60.00;;;;;;5109205;28;20035;-69
2022/09/04 11:49:08;;;;;;;;;;;28.70;60.30;;;;;;5116088;28;20031;-68
2022/09/04 11:51:58;;;;;;;2.60;1.20;;;28.70;60.00;;;;;;5108029;28;19946;-68
2022/09/04 11:55:08;;;;;;;3.38;1.20;;;28.20;61.00;;;;;;5114172;28;20042;-68
2022/09/04 11:57:34;;;;;;;3.38;1.13;;;28.40;59.90;;;;;;5093529;28;20033;-67
2022/09/04 12:00:19;;;;;;;3.13;1.20;;;29.00;58.40;;;;;;5113701;28;20020;-69
2022/09/04 12:03:09;;;;;;;2.50;1.20;;;28.80;59.50;;;;;;5081679;28;20367;-68
2022/09/04 12:05:54;;;;;;;3.15;1.10;;;28.10;60.40;;;;;;5117050;27;20040;-68
2022/09/04 12:08:37;;;;;;;2.63;1.17;;;27.60;59.10;;;;;;5103556;28;20019;-68
2022/09/04 12:11:13;;;;;;;4.50;1.23;;;27.40;62.80;;;;;;5100121;28;20019;-69
2022/09/04 12:14:08;;;;;;;2.83;1.23;;;28.00;62.20;;;;;;5108373;28;20024;-68
2022/09/04 12:17:00;;;;;;;3.13;1.20;;;28.40;61.30;;;;;;5088632;28;20119;-68
2022/09/04 12:19:41;;;;;;;2.50;1.10;;;28.70;59.80;;;;;;5103571;28;20378;-68
2022/09/04 12:22:13;;;;;;;3.33;1.23;;;29.10;61.70;;;;;;5092360;28;20103;-68
2022/09/04 12:24:44;;;;;;;2.78;1.20;;;29.20;59.00;;;;;;5103611;28;20016;-68
2022/09/04 12:27:30;;;;;;;3.72;1.35;;;29.40;60.50;;;;;;5096066;28;20056;-68
2022/09/04 12:30:34;;;;;;;2.58;1.17;;;29.00;59.30;;;;;;5095936;28;20016;-67
2022/09/04 12:33:03;;;;;;;2.78;1.27;;;27.70;60.20;;;;;;5095809;28;20042;-67
2022/09/04 12:35:50;;;;;;;4.40;1.45;;;27.30;61.40;;;;;;5096071;28;20024;-67
2022/09/04 12:38:54;;;;;;;4.57;1.30;;;27.20;61.60;;;;;;5095902;28;20440;-67
2022/09/04 12:41:29;;;;;;;;;;;27.70;63.00;;;;;;5095158;28;20097;-67
2022/09/04 12:44:13;;;;;;;;;;;27.90;60.40;;;;;;5096342;28;20011;-69
2022/09/04 12:47:12;;;;;;;2.97;1.38;;;27.80;61.60;;;;;;5095939;28;20178;-69
2022/09/04 12:49:41;;;;;;;2.75;1.20;;;28.00;61.70;;;;;;5096014;28;20417;-69
2022/09/04 12:52:19;;;;;;;3.28;1.52;;;27.50;61.60;;;;;;5095772;28;20046;-69
2022/09/04 12:55:14;;;;;;;4.15;1.30;;;27.50;62.70;;;;;;5103341;28;20027;-67
2022/09/04 12:57:55;;;;;;;2.95;1.33;;;28.00;63.90;;;;;;5120443;28;20035;-68
2022/09/04 13:00:48;;;;;;;5.50;1.40;;;28.40;62.40;;;;;;5120381;28;20297;-68
2022/09/04 13:03:25;;;;;;;2.80;1.27;;;28.60;62.60;;;;;;5120184;28;20024;-68
2022/09/04 13:06:12;;;;;;;3.35;1.38;;;28.80;63.90;;;;;;5120050;28;20042;-68
2022/09/04 13:09:05;;;;;;;2.63;1.05;;;28.60;60.10;;;;;;5118999;28;20023;-68
2022/09/04 13:12:00;;;;;;;2.90;1.20;;;28.60;58.20;;;;;;5103120;28;20417;-68
2022/09/04 13:14:43;;;;;;;2.67;1.20;;;28.80;60.00;;;;;;5099710;28;20024;-68
2022/09/04 13:17:24;;;;;;;;;;;29.10;58.20;;;;;;5100141;28;20025;-68
2022/09/04 13:20:12;;;;;;;3.85;1.30;;;28.70;58.40;;;;;;5099656;28;19908;-67
2022/09/04 13:23:08;;;;;;;3.40;1.30;;;28.90;58.10;;;;;;5099549;28;20075;-68
2022/09/04 13:26:09;;;;;;;2.25;1.00;;;29.20;59.80;;;;;;5098341;28;20024;-68
2022/09/04 13:28:36;;;;;;;3.92;1.40;;;29.30;59.50;;;;;;5096927;28;20024;-67
2022/09/04 13:31:17;;;;;;;2.22;1.20;;;28.90;58.40;;;;;;5096431;28;20020;-68
2022/09/04 13:34:13;;;;;;;3.45;1.33;;;28.50;59.40;;;;;;5096579;28;20036;-68
2022/09/04 13:36:56;;;;;;;3.25;1.23;;;27.60;60.20;;;;;;5090121;28;20115;-68
2022/09/04 13:39:59;;;;;;;3.72;1.48;;;27.30;59.30;;;;;;5097525;28;20433;-67
2022/09/04 13:42:53;;;;;;;4.10;1.40;;;27.70;60.30;;;;;;5054285;28;20035;-68
2022/09/04 13:45:38;;;;;;;4.60;1.40;;;27.50;60.80;;;;;;5097916;28;20031;-68
2022/09/04 13:48:10;;;;;;;2.40;1.20;;;27.10;61.40;;;;;;5094924;28;20040;-68
2022/09/04 13:50:51;;;;;;;5.03;1.40;;;26.60;63.30;;;;;;5101788;28;20024;-67
2022/09/04 13:53:22;;;;;;;2.72;1.20;;;26.80;62.60;;;;;;5118864;28;20084;-68
2022/09/04 13:56:02;;;;;;;3.67;1.15;;;27.70;61.00;;;;;;5118480;28;20028;-69
2022/09/04 13:58:37;;;;;;;3.50;1.38;;;28.60;60.80;;;;;;5118930;28;20027;-70
2022/09/04 14:01:08;;;;;;;3.45;1.20;;;29.50;58.80;;;;;;5104958;28;20432;-67
2022/09/04 14:03:40;;;;;;;2.22;1.10;;;29.30;58.60;;;;;;5079951;28;20077;-68
2022/09/04 14:06:13;;;;;;;3.25;1.20;;;29.40;56.90;;;;;;5093320;28;20043;-69
2022/09/04 14:08:41;;;;;;;2.78;1.17;;;29.90;56.60;;;;;;5088942;28;20024;-67
2022/09/04 14:11:21;;;;;;;2.47;1.15;;;30.40;54.60;;;;;;5106475;28;20298;-68
2022/09/04 14:14:26;;;;;;;2.75;1.00;;;30.90;56.40;;;;;;5098035;28;20354;-68
2022/09/04 14:16:58;;;;;;;2.38;1.10;;;31.00;54.20;;;;;;5043296;28;20432;-69
2022/09/04 14:19:39;;;;;;;3.60;0.95;;;31.50;54.10;;;;;;5108844;28;20035;-68
2022/09/04 14:22:20;;;;;;;3.67;1.20;;;31.00;54.90;;;;;;5101345;28;20029;-68
2022/09/04 14:24:59;;;;;;;3.85;1.20;;;29.90;56.40;;;;;;5076481;28;20491;-68
2022/09/04 14:27:35;;;;;;;3.08;1.30;;;29.60;55.70;;;;;;5059757;28;20028;-68
2022/09/04 14:30:07;;;;;;;3.13;1.45;;;29.60;56.20;;;;;;5101351;28;20111;-68
2022/09/04 14:33:19;;;;;;;4.15;1.40;;;29.90;55.80;;;;;;5118075;28;20024;-69